Time;durP1;ratioP1;P1;durP2;ratioP2;P2;SDS_P1;SDS_P2;PMS_P1;PMS_P2;Temp;Humidity;BMP_temperature;BMP_pressure;BME280_temperature;BME280_humidity;BME280_pressure;Samples;Min_cycle;Max_cycle;Signal;HPM_P1;HPM_P2
2022/04/13 00:02:07;;;;;;;21.38;12.95;;;;;;;;;;6229600;28;20398;-75
2022/04/13 00:05:10;;;;;;;24.70;13.13;;;;;;;;;;6230928;28;20152;-73
2022/04/13 00:08:11;;;;;;;20.52;13.20;;;;;;;;;;6228832;28;20100;-74
2022/04/13 00:11:13;;;;;;;21.10;13.57;;;;;;;;;;6230754;28;20132;-72
2022/04/13 00:14:15;;;;;;;23.77;12.93;;;;;;;;;;6230066;28;20046;-73
2022/04/13 00:17:18;;;;;;;20.88;13.07;;;;;;;;;;6232942;28;20532;-72
2022/04/13 00:20:22;;;;;;;25.77;14.13;;;;;;;;;;6236960;28;20092;-72
2022/04/13 00:23:23;;;;;;;22.10;13.13;;;;;;;;;;6234567;28;20510;-74
2022/04/13 00:26:25;;;;;;;20.52;12.95;;;;;;;;;;6229403;28;20583;-73
2022/04/13 00:29:29;;;;;;;23.27;13.77;;;;;;;;;;6229594;28;20049;-74
2022/04/13 00:32:33;;;;;;;28.90;14.60;;;;;;;;;;6232106;28;20054;-73
2022/04/13 00:35:34;;;;;;;25.75;14.18;;;;;;;;;;6227433;28;20049;-73
2022/04/13 00:38:36;;;;;;;23.92;13.15;;;;;;;;;;6227709;28;20100;-71
2022/04/13 00:41:38;;;;;;;22.55;13.68;;;;;;;;;;6230811;28;20148;-70
2022/04/13 00:44:39;;;;;;;20.98;12.10;;;;;;;;;;6230428;28;20532;-72
2022/04/13 00:47:43;;;;;;;22.73;12.75;;;;;;;;;;6231724;28;20068;-72
2022/04/13 00:50:45;;;;;;;23.02;13.73;;;;;;;;;;6230774;28;20046;-71
2022/04/13 00:53:47;;;;;;;21.65;13.25;;;;;;;;;;6233344;28;20409;-72
2022/04/13 00:56:50;;;;;;;22.65;13.30;;;;;;;;;;6232909;28;20171;-72
2022/04/13 00:59:53;;;;;;;21.90;13.45;;;;;;;;;;6226668;28;20046;-72
2022/04/13 01:02:56;;;;;;;;;;;;;;;;;;6233642;28;20046;-71
2022/04/13 01:05:58;;;;;;;17.45;12.05;;;;;;;;;;6228079;28;19999;-72
2022/04/13 01:09:00;;;;;;;22.70;13.48;;;;;;;;;;6232378;28;20092;-74
2022/04/13 01:12:02;;;;;;;19.90;12.63;;;;;;;;;;6232797;28;20053;-73
2022/04/13 01:15:04;;;;;;;20.95;12.60;;;;;;;;;;6229841;28;20260;-74
2022/04/13 01:18:07;;;;;;;19.75;12.32;;;;;;;;;;6227435;28;20046;-73
2022/04/13 01:21:12;;;;;;;22.90;12.55;;;;;;;;;;6229971;28;20065;-74
2022/04/13 01:24:16;;;;;;;19.15;11.48;;;;;;;;;;6230776;28;20050;-73
2022/04/13 01:27:18;;;;;;;;;;;;;;;;;;6222720;28;20046;-73
2022/04/13 01:30:23;;;;;;;16.35;10.05;;;;;;;;;;6223001;28;20008;-73
2022/04/13 01:33:27;;;;;;;20.23;11.48;;;;;;;;;;6226860;28;20106;-73
2022/04/13 01:36:28;;;;;;;;;;;;;;;;;;6231311;28;20060;-73
2022/04/13 01:39:31;;;;;;;20.25;11.18;;;;;;;;;;6229108;28;20481;-73
2022/04/13 01:42:33;;;;;;;17.02;10.70;;;;;;;;;;6228941;28;20140;-73
2022/04/13 01:45:36;;;;;;;20.02;10.73;;;;;;;;;;6232818;28;20061;-73
2022/04/13 01:48:37;;;;;;;19.20;10.88;;;;;;;;;;6230808;28;20103;-73
2022/04/13 01:51:39;;;;;;;17.38;10.75;;;;;;;;;;6233476;28;20260;-73
2022/04/13 01:54:42;;;;;;;18.95;11.65;;;;;;;;;;6231185;28;20081;-74
2022/04/13 01:57:44;;;;;;;14.65;9.98;;;;;;;;;;6236515;28;20050;-74
2022/04/13 02:00:45;;;;;;;16.08;9.82;;;;;;;;;;6230746;28;20050;-74
2022/04/13 02:03:48;;;;;;;18.13;10.43;;;;;;;;;;6232847;28;20132;-73
2022/04/13 02:06:51;;;;;;;18.43;10.53;;;;;;;;;;6233147;28;20068;-73
2022/04/13 02:09:54;;;;;;;18.90;10.80;;;;;;;;;;6235938;28;20045;-72
2022/04/13 02:12:55;;;;;;;21.57;11.10;;;;;;;;;;6234194;28;20061;-73
2022/04/13 02:15:57;;;;;;;18.65;10.90;;;;;;;;;;6229095;28;20045;-73
2022/04/13 02:18:59;;;;;;;19.00;10.30;;;;;;;;;;6229619;28;20084;-73
2022/04/13 02:22:00;;;;;;;16.38;10.43;;;;;;;;;;6227153;28;20058;-74
2022/04/13 02:25:04;;;;;;;18.15;10.40;;;;;;;;;;6224335;28;20068;-73
2022/04/13 02:28:06;;;;;;;;;;;;;;;;;;6225386;28;20046;-73
2022/04/13 02:31:08;;;;;;;16.00;10.70;;;;;;;;;;6228949;28;19932;-74
2022/04/13 02:34:09;;;;;;;21.25;11.00;;;;;;;;;;6226802;28;20053;-74
2022/04/13 02:37:11;;;;;;;17.58;10.77;;;;;;;;;;6226275;28;20053;-74
2022/04/13 02:40:14;;;;;;;17.92;11.10;;;;;;;;;;6229963;28;20057;-74
2022/04/13 02:43:16;;;;;;;18.83;10.68;;;;;;;;;;6232513;28;20156;-74
2022/04/13 02:46:18;;;;;;;18.65;10.88;;;;;;;;;;6230842;28;20050;-73
2022/04/13 02:49:20;;;;;;;16.13;10.43;;;;;;;;;;6230469;28;20470;-74
2022/04/13 02:52:21;;;;;;;20.00;10.63;;;;;;;;;;6232149;28;20143;-73
2022/04/13 02:55:25;;;;;;;16.83;10.77;;;;;;;;;;6235524;28;20183;-74
2022/04/13 02:58:26;;;;;;;16.38;10.00;;;;;;;;;;6233394;28;20045;-74
2022/04/13 03:01:28;;;;;;;19.27;11.15;;;;;;;;;;6232941;28;20060;-74
2022/04/13 03:04:32;;;;;;;16.05;10.18;;;;;;;;;;6232807;28;20053;-74
2022/04/13 03:07:33;;;;;;;18.88;10.82;;;;;;;;;;6233624;28;20050;-74
2022/04/13 03:10:37;;;;;;;23.38;11.30;;;;;;;;;;6236872;28;20049;-74
2022/04/13 03:13:38;;;;;;;20.80;12.18;;;;;;;;;;6256710;28;20480;-73
2022/04/13 03:16:40;;;;;;;20.73;10.82;;;;;;;;;;6260288;28;20194;-74
2022/04/13 03:19:41;;;;;;;24.67;12.18;;;;;;;;;;6260943;28;20170;-74
2022/04/13 03:22:43;;;;;;;18.48;11.13;;;;;;;;;;6258210;28;20044;-74
2022/04/13 03:25:46;;;;;;;18.40;11.13;;;;;;;;;;6256101;28;20053;-74
2022/04/13 03:28:47;;;;;;;18.98;11.77;;;;;;;;;;6254678;28;20407;-74
2022/04/13 03:31:49;;;;;;;20.35;11.52;;;;;;;;;;6246891;28;20058;-74
2022/04/13 03:34:51;;;;;;;16.63;10.90;;;;;;;;;;6253116;28;20395;-74
2022/04/13 03:37:52;;;;;;;20.90;11.18;;;;;;;;;;6250048;28;20115;-74
2022/04/13 03:40:55;;;;;;;20.83;11.25;;;;;;;;;;6251296;28;20041;-74
2022/04/13 03:43:57;;;;;;;23.70;11.70;;;;;;;;;;6253868;28;20074;-74
2022/04/13 03:46:58;;;;;;;17.13;10.77;;;;;;;;;;6252797;28;20045;-74
2022/04/13 03:50:00;;;;;;;19.83;12.20;;;;;;;;;;6249931;28;20064;-75
2022/04/13 03:53:02;;;;;;;18.45;10.93;;;;;;;;;;6249522;28;20163;-74
2022/04/13 03:56:05;;;;;;;22.85;11.73;;;;;;;;;;6250782;28;20192;-74
2022/04/13 03:59:08;;;;;;;20.90;11.32;;;;;;;;;;6252990;28;20056;-74
2022/04/13 04:02:10;;;;;;;21.67;11.15;;;;;;;;;;6250028;28;20057;-74
2022/04/13 04:05:11;;;;;;;21.80;11.73;;;;;;;;;;6254423;28;20531;-74
2022/04/13 04:08:13;;;;;;;24.92;12.90;;;;;;;;;;6253082;28;20048;-74
2022/04/13 04:11:16;;;;;;;22.80;11.80;;;;;;;;;;6253763;28;20486;-74
2022/04/13 04:14:17;;;;;;;25.52;12.57;;;;;;;;;;6255478;28;20048;-74
2022/04/13 04:17:19;;;;;;;25.48;12.35;;;;;;;;;;6256098;28;20054;-74
2022/04/13 04:20:21;;;;;;;23.27;11.98;;;;;;;;;;6260839;28;20170;-73
2022/04/13 04:23:23;;;;;;;22.65;12.13;;;;;;;;;;6259785;28;20484;-74
2022/04/13 04:26:26;;;;;;;24.23;13.13;;;;;;;;;;6259631;28;20049;-74
2022/04/13 04:29:27;;;;;;;19.33;11.90;;;;;;;;;;6261790;28;20042;-74
2022/04/13 04:32:29;;;;;;;27.75;12.43;;;;;;;;;;6257384;28;20128;-74
2022/04/13 04:35:31;;;;;;;28.10;12.50;;;;;;;;;;6261356;28;20052;-74
2022/04/13 04:38:32;;;;;;;21.85;12.63;;;;;;;;;;6258327;28;20519;-74
2022/04/13 04:41:35;;;;;;;24.42;13.35;;;;;;;;;;6261703;28;20837;-74
2022/04/13 04:44:37;;;;;;;24.80;12.93;;;;;;;;;;6259330;28;20061;-74
2022/04/13 04:47:39;;;;;;;23.20;12.55;;;;;;;;;;6252998;28;20088;-74
2022/04/13 04:50:40;;;;;;;19.92;13.02;;;;;;;;;;6253654;28;20045;-72
2022/04/13 04:53:42;;;;;;;19.88;12.48;;;;;;;;;;6260568;28;20139;-71
2022/04/13 04:56:45;;;;;;;24.27;13.20;;;;;;;;;;6253905;28;20069;-73
2022/04/13 04:59:47;;;;;;;20.65;13.07;;;;;;;;;;6254096;28;20480;-72
2022/04/13 05:02:48;;;;;;;22.52;13.07;;;;;;;;;;6259129;28;20821;-72
2022/04/13 05:05:51;;;;;;;18.98;12.20;;;;;;;;;;6255963;28;20128;-73
2022/04/13 05:08:53;;;;;;;21.17;12.20;;;;;;;;;;6258768;28;20140;-73
2022/04/13 05:11:55;;;;;;;25.85;12.65;;;;;;;;;;6260398;28;20046;-72
2022/04/13 05:14:57;;;;;;;21.27;12.32;;;;;;;;;;6258765;28;20040;-73
2022/04/13 05:17:59;;;;;;;24.20;13.05;;;;;;;;;;6258681;28;20049;-73
2022/04/13 05:21:01;;;;;;;24.17;12.07;;;;;;;;;;6254768;28;20126;-73
2022/04/13 05:24:02;;;;;;;18.83;12.25;;;;;;;;;;6250272;28;20132;-72
2022/04/13 05:27:07;;;;;;;22.48;12.43;;;;;;;;;;6252039;28;20053;-72
2022/04/13 05:30:13;;;;;;;21.92;12.52;;;;;;;;;;6252026;28;20170;-73
2022/04/13 05:33:15;;;;;;;22.77;12.82;;;;;;;;;;6256179;28;20050;-74
2022/04/13 05:36:17;;;;;;;26.42;12.95;;;;;;;;;;6255448;28;20626;-74
2022/04/13 05:39:18;;;;;;;23.30;13.23;;;;;;;;;;6254482;28;20053;-74
2022/04/13 05:42:23;;;;;;;23.88;13.43;;;;;;;;;;6255414;28;20076;-73
2022/04/13 05:45:25;;;;;;;26.17;13.85;;;;;;;;;;6258748;28;20063;-73
2022/04/13 05:48:27;;;;;;;25.27;13.38;;;;;;;;;;6253051;28;20106;-73
2022/04/13 05:51:28;;;;;;;24.52;13.95;;;;;;;;;;6259281;28;20049;-73
2022/04/13 05:54:30;;;;;;;22.33;12.70;;;;;;;;;;6259835;28;20064;-74
2022/04/13 05:57:33;;;;;;;24.55;13.10;;;;;;;;;;6259930;28;20179;-72
2022/04/13 06:00:34;;;;;;;27.33;13.65;;;;;;;;;;6257122;28;20503;-74
2022/04/13 06:03:36;;;;;;;24.02;14.13;;;;;;;;;;6255486;28;20065;-75
2022/04/13 06:06:38;;;;;;;24.27;13.23;;;;;;;;;;6251401;28;20061;-75
2022/04/13 06:09:39;;;;;;;22.35;12.95;;;;;;;;;;6261743;28;20122;-74
2022/04/13 06:12:42;;;;;;;23.80;11.68;;;;;;;;;;6260660;28;20131;-74
2022/04/13 06:15:44;;;;;;;20.15;12.50;;;;;;;;;;6255188;28;20049;-73
2022/04/13 06:18:46;;;;;;;23.33;12.90;;;;;;;;;;6256058;28;20363;-74
2022/04/13 06:21:47;;;;;;;23.58;11.50;;;;;;;;;;6252819;28;20389;-71
2022/04/13 06:24:51;;;;;;;22.75;12.75;;;;;;;;;;6248656;28;20568;-71
2022/04/13 06:27:54;;;;;;;25.58;12.27;;;;;;;;;;6249080;28;20445;-73
2022/04/13 06:30:56;;;;;;;23.50;11.80;;;;;;;;;;6251105;28;20065;-73
2022/04/13 06:33:58;;;;;;;17.90;11.00;;;;;;;;;;6253655;28;20048;-73
2022/04/13 06:36:59;;;;;;;21.20;11.82;;;;;;;;;;6253872;28;20203;-73
2022/04/13 06:40:01;;;;;;;20.52;11.20;;;;;;;;;;6252955;28;20049;-73
2022/04/13 06:43:04;;;;;;;24.42;11.57;;;;;;;;;;6252801;28;20049;-73
2022/04/13 06:46:06;;;;;;;18.80;12.10;;;;;;;;;;6252638;28;20053;-74
2022/04/13 06:49:08;;;;;;;21.58;11.77;;;;;;;;;;6252864;28;20487;-73
2022/04/13 06:52:09;;;;;;;18.85;11.45;;;;;;;;;;6251041;28;20518;-73
2022/04/13 06:55:11;;;;;;;22.23;11.25;;;;;;;;;;6253217;28;20057;-73
2022/04/13 06:58:14;;;;;;;19.42;11.13;;;;;;;;;;6257506;28;20051;-73
2022/04/13 07:01:16;;;;;;;20.52;10.05;;;;;;;;;;6250958;28;20047;-73
2022/04/13 07:04:17;;;;;;;23.20;11.02;;;;;;;;;;6251536;28;20045;-72
2022/04/13 07:07:19;;;;;;;18.75;10.48;;;;;;;;;;6256341;28;20052;-72
2022/04/13 07:10:21;;;;;;;18.48;10.48;;;;;;;;;;6258011;28;20057;-72
2022/04/13 07:13:24;;;;;;;17.88;9.82;;;;;;;;;;6257956;28;20132;-72
2022/04/13 07:16:25;;;;;;;18.03;10.73;;;;;;;;;;6257195;28;20128;-72
2022/04/13 07:19:27;;;;;;;19.33;10.43;;;;;;;;;;6251502;28;20421;-72
2022/04/13 07:22:28;;;;;;;16.75;9.98;;;;;;;;;;6248729;28;20046;-72
2022/04/13 07:25:30;;;;;;;18.73;9.30;;;;;;;;;;6251906;28;20053;-73
2022/04/13 07:28:33;;;;;;;19.95;11.05;;;;;;;;;;6249929;28;20452;-73
2022/04/13 07:31:35;;;;;;;17.10;9.53;;;;;;;;;;6250253;28;20484;-73
2022/04/13 07:34:36;;;;;;;20.05;9.93;;;;;;;;;;6249349;28;20134;-72
2022/04/13 07:37:40;;;;;;;17.83;9.98;;;;;;;;;;6250371;28;20072;-73
2022/04/13 07:40:41;;;;;;;16.83;9.75;;;;;;;;;;6250849;28;20472;-73
2022/04/13 07:43:44;;;;;;;16.52;10.07;;;;;;;;;;6255793;28;21590;-73
2022/04/13 07:46:46;;;;;;;18.17;10.13;;;;;;;;;;6252112;28;20119;-73
2022/04/13 07:49:48;;;;;;;18.35;9.90;;;;;;;;;;6252724;28;20171;-73
2022/04/13 07:52:50;;;;;;;16.40;9.73;;;;;;;;;;6254561;28;20147;-72
2022/04/13 07:55:51;;;;;;;19.70;10.13;;;;;;;;;;6258554;28;20090;-73
2022/04/13 07:58:54;;;;;;;19.00;10.43;;;;;;;;;;6260750;28;20056;-73
2022/04/13 08:01:56;;;;;;;18.08;10.13;;;;;;;;;;6261708;28;20055;-74
2022/04/13 08:04:57;;;;;;;19.40;10.07;;;;;;;;;;6262250;28;20520;-74
2022/04/13 08:07:59;;;;;;;19.83;9.93;;;;;;;;;;6261102;28;20056;-74
2022/04/13 08:11:01;;;;;;;16.48;9.95;;;;;;;;;;6261412;28;20041;-74
2022/04/13 08:14:04;;;;;;;15.63;9.55;;;;;;;;;;6260943;28;20034;-73
2022/04/13 08:17:06;;;;;;;19.42;9.35;;;;;;;;;;6262557;28;20053;-73
2022/04/13 08:20:11;;;;;;;19.58;10.27;;;;;;;;;;6257413;28;20053;-72
2022/04/13 08:23:13;;;;;;;14.30;8.90;;;;;;;;;;6257633;28;20120;-72
2022/04/13 08:26:14;;;;;;;17.80;9.05;;;;;;;;;;6260733;28;20101;-81
2022/04/13 08:29:17;;;;;;;31.45;19.90;;;;;;;;;;6263930;28;20045;-77
2022/04/13 08:32:20;;;;;;;27.92;15.18;;;;;;;;;;6253551;28;20053;-75
2022/04/13 08:35:21;;;;;;;28.48;15.23;;;;;;;;;;6262199;28;20052;-74
2022/04/13 08:38:23;;;;;;;22.30;11.63;;;;;;;;;;6262322;28;20103;-78
2022/04/13 08:41:31;;;;;;;19.08;9.88;;;;;;;;;;6257422;28;20111;-72
2022/04/13 08:44:39;;;;;;;22.50;9.60;;;;;;;;;;6258742;28;20099;-72
2022/04/13 08:47:44;;;;;;;15.23;8.55;;;;;;;;;;6257584;28;20143;-72
2022/04/13 08:50:46;;;;;;;15.82;8.70;;;;;;;;;;6255630;28;20420;-72
2022/04/13 08:53:50;;;;;;;16.00;9.40;;;;;;;;;;6253010;28;20473;-72
2022/04/13 08:56:56;;;;;;;13.75;8.70;;;;;;;;;;6257099;28;20053;-71
2022/04/13 09:00:20;;;;;;;13.80;8.45;;;;;;;;;;6257041;28;20045;-72
2022/04/13 09:03:28;;;;;;;14.23;8.30;;;;;;;;;;6254427;28;20416;-72
2022/04/13 09:06:31;;;;;;;13.52;9.27;;;;;;;;;;6257692;28;20049;-72
2022/04/13 09:09:38;;;;;;;16.23;9.43;;;;;;;;;;6257644;28;20045;-72
2022/04/13 09:12:39;;;;;;;13.25;8.30;;;;;;;;;;6264093;28;20102;-72
2022/04/13 09:15:43;;;;;;;14.65;9.35;;;;;;;;;;6260269;28;20131;-73
2022/04/13 09:18:45;;;;;;;17.02;9.43;;;;;;;;;;6250879;28;20174;-72
2022/04/13 09:21:47;;;;;;;15.45;8.15;;;;;;;;;;6256713;28;20052;-72
2022/04/13 09:24:50;;;;;;;13.83;9.20;;;;;;;;;;6254960;28;20080;-72
2022/04/13 09:27:52;;;;;;;14.27;9.75;;;;;;;;;;6254036;28;20467;-72
2022/04/13 09:30:56;;;;;;;12.75;8.30;;;;;;;;;;6253553;28;20128;-71
2022/04/13 09:33:57;;;;;;;13.80;8.40;;;;;;;;;;6257653;28;20136;-71
2022/04/13 09:36:59;;;;;;;12.80;8.57;;;;;;;;;;6251874;28;20124;-71
2022/04/13 09:40:01;;;;;;;18.02;9.45;;;;;;;;;;6255837;28;20131;-72
2022/04/13 09:43:07;;;;;;;11.65;8.55;;;;;;;;;;6256885;28;20128;-72
2022/04/13 09:46:26;;;;;;;14.30;8.35;;;;;;;;;;6255455;28;20060;-72
2022/04/13 09:49:28;;;;;;;16.10;8.00;;;;;;;;;;6255244;28;20069;-72
2022/04/13 09:52:33;;;;;;;10.65;7.47;;;;;;;;;;6253926;28;20097;-72
2022/04/13 09:55:38;;;;;;;11.77;7.80;;;;;;;;;;6255852;28;20582;-72
2022/04/13 09:58:41;;;;;;;12.88;8.30;;;;;;;;;;6259932;28;20045;-72
2022/04/13 10:01:48;;;;;;;11.68;7.93;;;;;;;;;;6256497;28;20048;-72
2022/04/13 10:04:50;;;;;;;17.15;8.70;;;;;;;;;;6257313;28;20549;-72
2022/04/13 10:08:01;;;;;;;12.70;8.70;;;;;;;;;;6258472;28;20273;-72
2022/04/13 10:11:08;;;;;;;12.45;8.60;;;;;;;;;;6256045;28;20056;-72
2022/04/13 10:14:10;;;;;;;14.02;8.27;;;;;;;;;;6256909;28;20146;-72
2022/04/13 10:17:15;;;;;;;12.25;8.88;;;;;;;;;;6251324;28;20194;-72
2022/04/13 10:20:17;;;;;;;14.68;8.82;;;;;;;;;;6252113;28;20598;-72
2022/04/13 10:23:19;;;;;;;15.47;9.80;;;;;;;;;;6257805;28;20137;-71
2022/04/13 10:26:20;;;;;;;13.02;8.70;;;;;;;;;;6254313;28;20061;-72
2022/04/13 10:29:25;;;;;;;11.27;8.25;;;;;;;;;;6254453;28;20636;-73
2022/04/13 10:32:28;;;;;;;14.40;9.00;;;;;;;;;;6253458;28;20133;-73
2022/04/13 10:35:32;;;;;;;11.45;8.38;;;;;;;;;;6255044;28;20053;-72
2022/04/13 10:38:34;;;;;;;13.80;9.20;;;;;;;;;;6251497;28;20195;-72
2022/04/13 10:41:37;;;;;;;13.63;8.47;;;;;;;;;;6255993;28;20048;-73
2022/04/13 10:44:42;;;;;;;12.82;8.18;;;;;;;;;;6252208;28;20662;-73
2022/04/13 10:47:55;;;;;;;14.43;8.90;;;;;;;;;;6252798;28;20045;-73
2022/04/13 10:50:59;;;;;;;13.95;8.70;;;;;;;;;;6252920;28;20045;-73
2022/04/13 10:54:04;;;;;;;14.77;9.55;;;;;;;;;;6252101;28;20064;-74
2022/04/13 10:57:07;;;;;;;13.13;9.27;;;;;;;;;;6255667;28;20057;-72
2022/04/13 11:00:11;;;;;;;18.85;10.52;;;;;;;;;;6258294;28;20588;-73
2022/04/13 11:03:14;;;;;;;28.83;10.15;;;;;;;;;;6252280;28;20370;-72
2022/04/13 11:06:15;;;;;;;16.70;9.57;;;;;;;;;;6252137;28;20056;-73
2022/04/13 11:09:21;;;;;;;17.25;9.75;;;;;;;;;;6257735;28;20414;-73
2022/04/13 11:12:23;;;;;;;16.23;10.15;;;;;;;;;;6256544;28;20175;-73
2022/04/13 11:15:39;;;;;;;13.05;9.90;;;;;;;;;;6252435;28;20077;-73
2022/04/13 11:18:42;;;;;;;17.02;9.82;;;;;;;;;;6245983;28;20056;-73
2022/04/13 11:22:14;;;;;;;11.93;8.98;;;;;;;;;;6251943;28;20049;-74
2022/04/13 11:25:43;;;;;;;16.50;10.27;;;;;;;;;;6253542;28;20052;-72
2022/04/13 11:28:45;;;;;;;13.57;10.20;;;;;;;;;;6246860;28;20413;-73
2022/04/13 11:32:10;;;;;;;14.02;10.55;;;;;;;;;;6253334;28;20508;-72
2022/04/13 11:35:24;;;;;;;15.27;10.02;;;;;;;;;;6253251;28;20176;-73
2022/04/13 11:38:33;;;;;;;13.77;10.02;;;;;;;;;;6251163;28;20053;-72
2022/04/13 11:41:34;;;;;;;14.88;10.13;;;;;;;;;;6252966;28;20071;-76
2022/04/13 11:44:47;;;;;;;13.97;9.57;;;;;;;;;;6253461;28;20049;-73
2022/04/13 11:48:03;;;;;;;15.50;9.43;;;;;;;;;;6252901;28;20552;-78
2022/04/13 11:51:26;;;;;;;14.50;9.20;;;;;;;;;;6255814;28;20061;-75
2022/04/13 11:54:45;;;;;;;14.18;9.18;;;;;;;;;;6256997;28;20195;-76
2022/04/13 11:57:59;;;;;;;17.80;10.07;;;;;;;;;;6253028;28;20143;-69
2022/04/13 12:01:05;;;;;;;19.13;9.68;;;;;;;;;;6259897;28;20132;-71
2022/04/13 12:04:07;;;;;;;16.45;10.20;;;;;;;;;;6258155;28;20180;-69
2022/04/13 12:07:11;;;;;;;13.60;9.65;;;;;;;;;;6258257;28;20049;-70
2022/04/13 12:10:13;;;;;;;16.15;9.80;;;;;;;;;;6258277;28;20045;-75
2022/04/13 12:13:15;;;;;;;15.63;10.67;;;;;;;;;;6254782;28;20048;-73
2022/04/13 12:16:18;;;;;;;14.45;10.93;;;;;;;;;;6253660;28;20451;-74
2022/04/13 12:19:20;;;;;;;15.02;10.80;;;;;;;;;;6256682;28;20183;-74
2022/04/13 12:22:23;;;;;;;14.70;10.00;;;;;;;;;;6252497;28;20046;-73
2022/04/13 12:25:25;;;;;;;14.52;11.00;;;;;;;;;;6248564;28;20053;-72
2022/04/13 12:28:26;;;;;;;15.60;10.73;;;;;;;;;;6253665;28;20050;-75
2022/04/13 12:31:28;;;;;;;13.97;11.77;;;;;;;;;;6253403;28;20756;-73
2022/04/13 12:34:30;;;;;;;17.48;11.13;;;;;;;;;;6252913;28;20089;-72
2022/04/13 12:37:33;;;;;;;16.63;11.77;;;;;;;;;;6253865;28;20052;-74
2022/04/13 12:40:35;;;;;;;13.38;9.32;;;;;;;;;;6259886;28;20088;-73
2022/04/13 12:43:39;;;;;;;15.50;9.38;;;;;;;;;;6256889;28;20049;-74
2022/04/13 12:46:41;;;;;;;12.45;10.32;;;;;;;;;;6260204;28;20187;-74
2022/04/13 12:49:42;;;;;;;14.77;10.70;;;;;;;;;;6255281;28;20417;-74
2022/04/13 12:52:56;;;;;;;15.00;10.17;;;;;;;;;;6257960;28;20592;-74
2022/04/13 12:55:58;;;;;;;13.02;10.13;;;;;;;;;;6252756;28;20041;-74
2022/04/13 12:59:01;;;;;;;14.52;11.00;;;;;;;;;;6260654;28;20516;-73
2022/04/13 13:02:02;;;;;;;;;;;;;;;;;;6262059;28;20045;-74
2022/04/13 13:05:05;;;;;;;12.13;10.82;;;;;;;;;;6260304;28;19920;-74
2022/04/13 13:08:08;;;;;;;;;;;;;;;;;;6262838;28;20135;-73
2022/04/13 13:11:11;;;;;;;11.75;9.45;;;;;;;;;;6254211;28;19973;-73
2022/04/13 13:14:14;;;;;;;13.93;9.48;;;;;;;;;;6263035;28;20048;-74
2022/04/13 13:17:17;;;;;;;13.68;9.70;;;;;;;;;;6259667;28;20151;-74
2022/04/13 13:20:20;;;;;;;14.07;9.60;;;;;;;;;;6256079;28;20045;-74
2022/04/13 13:23:26;;;;;;;18.88;11.90;;;;;;;;;;6259202;28;20386;-74
2022/04/13 13:26:28;;;;;;;16.98;10.80;;;;;;;;;;6255680;28;20053;-75
2022/04/13 13:29:30;;;;;;;12.57;10.97;;;;;;;;;;6261452;28;20049;-74
2022/04/13 13:32:36;;;;;;;14.43;10.87;;;;;;;;;;6256013;28;20072;-74
2022/04/13 13:35:38;;;;;;;16.40;12.10;;;;;;;;;;6261131;28;20143;-75
2022/04/13 13:38:47;;;;;;;17.27;13.00;;;;;;;;;;6256126;28;20132;-74
2022/04/13 13:42:02;;;;;;;17.83;12.25;;;;;;;;;;6259572;28;20068;-73
2022/04/13 13:45:15;;;;;;;18.00;11.90;;;;;;;;;;6255455;28;20486;-72
2022/04/13 13:48:21;;;;;;;24.70;13.45;;;;;;;;;;6257554;28;20500;-74
2022/04/13 13:51:23;;;;;;;16.55;12.65;;;;;;;;;;6257265;28;20053;-73
2022/04/13 13:54:26;;;;;;;20.15;12.57;;;;;;;;;;6254236;28;20076;-73
2022/04/13 13:57:28;;;;;;;17.80;11.25;;;;;;;;;;6253076;28;20067;-74
2022/04/13 14:00:34;;;;;;;17.80;12.13;;;;;;;;;;6257570;28;20058;-73
2022/04/13 14:03:36;;;;;;;16.48;11.98;;;;;;;;;;6254765;28;20046;-75
2022/04/13 14:06:38;;;;;;;22.57;13.97;;;;;;;;;;6252301;28;20468;-74
2022/04/13 14:09:41;;;;;;;20.30;13.60;;;;;;;;;;6254158;28;20144;-74
2022/04/13 14:12:43;;;;;;;17.40;13.85;;;;;;;;;;6255654;28;20147;-74
2022/04/13 14:15:45;;;;;;;22.50;15.07;;;;;;;;;;6252469;28;20057;-74
2022/04/13 14:18:46;;;;;;;22.55;13.88;;;;;;;;;;6248759;28;20049;-74
2022/04/13 14:21:48;;;;;;;16.95;13.05;;;;;;;;;;6254260;28;20247;-74
2022/04/13 14:24:51;;;;;;;19.58;12.35;;;;;;;;;;6249187;28;20082;-73
2022/04/13 14:27:53;;;;;;;;;;;;;;;;;;6251522;28;20137;-73
2022/04/13 14:30:55;;;;;;;17.95;11.38;;;;;;;;;;6254405;28;19939;-74
2022/04/13 14:33:57;;;;;;;17.23;11.63;;;;;;;;;;6251951;28;20491;-75
2022/04/13 14:37:00;;;;;;;18.00;10.50;;;;;;;;;;6253269;28;20067;-74
2022/04/13 14:40:04;;;;;;;23.20;13.60;;;;;;;;;;6253742;28;20045;-73
2022/04/13 14:43:07;;;;;;;17.67;12.55;;;;;;;;;;6255448;28;20045;-74
2022/04/13 14:46:09;;;;;;;19.70;12.20;;;;;;;;;;6251427;28;20072;-74
2022/04/13 14:49:11;;;;;;;16.38;11.77;;;;;;;;;;6254296;28;20148;-73
2022/04/13 14:52:13;;;;;;;19.60;12.23;;;;;;;;;;6251152;28;20065;-73
2022/04/13 14:55:16;;;;;;;14.07;10.75;;;;;;;;;;6253266;28;20050;-73
2022/04/13 14:58:18;;;;;;;16.45;10.52;;;;;;;;;;6250927;28;20285;-74
2022/04/13 15:01:19;;;;;;;19.90;11.45;;;;;;;;;;6253332;28;20522;-77
2022/04/13 15:04:23;;;;;;;16.75;11.25;;;;;;;;;;6255924;28;20528;-77
2022/04/13 15:07:25;;;;;;;17.60;11.25;;;;;;;;;;6254420;28;20060;-82
2022/04/13 15:10:28;;;;;;;22.33;16.00;;;;;;;;;;6250893;28;20053;-78
2022/04/13 15:13:29;;;;;;;43.45;23.95;;;;;;;;;;6248752;28;20402;-77
2022/04/13 15:16:32;;;;;;;51.65;31.45;;;;;;;;;;6246716;28;20624;-75
2022/04/13 15:19:33;;;;;;;18.88;11.52;;;;;;;;;;6247526;28;20049;-76
2022/04/13 15:22:36;;;;;;;18.90;10.98;;;;;;;;;;6251072;28;20152;-74
2022/04/13 15:25:39;;;;;;;22.08;11.10;;;;;;;;;;6250336;28;20079;-75
2022/04/13 15:28:41;;;;;;;19.48;9.57;;;;;;;;;;6252578;28;20060;-75
2022/04/13 15:31:43;;;;;;;18.73;10.18;;;;;;;;;;6252134;28;20183;-75
2022/04/13 15:34:45;;;;;;;14.43;9.73;;;;;;;;;;6252729;28;20057;-74
2022/04/13 15:37:47;;;;;;;17.67;8.98;;;;;;;;;;6251710;28;20053;-72
2022/04/13 15:40:51;;;;;;;18.83;9.52;;;;;;;;;;6253335;28;20135;-74
2022/04/13 15:43:53;;;;;;;14.80;9.07;;;;;;;;;;6249323;28;20049;-75
2022/04/13 15:46:55;;;;;;;16.33;9.53;;;;;;;;;;6254496;28;20049;-74
2022/04/13 15:49:56;;;;;;;16.38;9.30;;;;;;;;;;6250481;28;20462;-74
2022/04/13 15:52:59;;;;;;;16.80;9.52;;;;;;;;;;6253989;28;20132;-75
2022/04/13 15:56:04;;;;;;;16.58;9.15;;;;;;;;;;6250983;28;20136;-74
2022/04/13 15:59:06;;;;;;;15.57;9.35;;;;;;;;;;6250901;28;20457;-73
2022/04/13 16:02:08;;;;;;;16.10;9.27;;;;;;;;;;6251977;28;20103;-74
2022/04/13 16:05:10;;;;;;;13.20;8.52;;;;;;;;;;6253226;28;20144;-74
2022/04/13 16:08:12;;;;;;;19.87;8.40;;;;;;;;;;6257862;28;20056;-74
2022/04/13 16:11:15;;;;;;;15.70;9.48;;;;;;;;;;6247633;28;20420;-74
2022/04/13 16:14:17;;;;;;;;;;;;;;;;;;6253423;28;20449;-74
2022/04/13 16:17:18;;;;;;;15.63;8.65;;;;;;;;;;6250838;28;19974;-74
2022/04/13 16:20:22;;;;;;;16.67;9.35;;;;;;;;;;6255815;28;20056;-74
2022/04/13 16:23:24;;;;;;;17.15;9.77;;;;;;;;;;6254803;28;20091;-74
2022/04/13 16:26:27;;;;;;;19.67;9.10;;;;;;;;;;6256876;28;20098;-74
2022/04/13 16:29:29;;;;;;;17.67;9.35;;;;;;;;;;6255134;28;20072;-73
2022/04/13 16:32:30;;;;;;;20.70;8.65;;;;;;;;;;6254450;28;20148;-74
2022/04/13 16:35:32;;;;;;;17.50;9.70;;;;;;;;;;6257595;28;20045;-74
2022/04/13 16:38:34;;;;;;;16.50;8.55;;;;;;;;;;6253175;28;20060;-73
2022/04/13 16:41:37;;;;;;;16.10;9.18;;;;;;;;;;6258493;28;20404;-74
2022/04/13 16:44:39;;;;;;;17.58;9.45;;;;;;;;;;6256721;28;20460;-74
2022/04/13 16:47:40;;;;;;;15.60;8.18;;;;;;;;;;6256806;28;20045;-73
2022/04/13 16:50:43;;;;;;;14.90;8.45;;;;;;;;;;6255990;28;20060;-73
2022/04/13 16:53:45;;;;;;;17.63;8.68;;;;;;;;;;6254268;28;20057;-74
2022/04/13 16:56:48;;;;;;;14.18;8.13;;;;;;;;;;6259223;28;20495;-73
2022/04/13 16:59:50;;;;;;;15.88;8.27;;;;;;;;;;6254699;28;20048;-73
2022/04/13 17:02:51;;;;;;;17.40;9.32;;;;;;;;;;6250100;28;20175;-73
2022/04/13 17:05:53;;;;;;;22.05;9.85;;;;;;;;;;6257668;28;20151;-73
2022/04/13 17:08:55;;;;;;;17.00;9.15;;;;;;;;;;6256273;28;20050;-74
2022/04/13 17:11:58;;;;;;;19.77;8.88;;;;;;;;;;6255098;28;20119;-74
2022/04/13 17:14:59;;;;;;;17.48;9.55;;;;;;;;;;6259028;28;20484;-73
2022/04/13 17:18:03;;;;;;;19.08;10.07;;;;;;;;;;6254185;28;20111;-73
2022/04/13 17:21:06;;;;;;;16.45;8.85;;;;;;;;;;6248332;28;20056;-74
2022/04/13 17:24:09;;;;;;;19.17;10.10;;;;;;;;;;6252247;28;20041;-78
2022/04/13 17:27:12;;;;;;;20.37;9.73;;;;;;;;;;6252617;28;20045;-76
2022/04/13 17:30:14;;;;;;;21.30;10.40;;;;;;;;;;6253624;28;20114;-78
2022/04/13 17:33:16;;;;;;;19.83;10.57;;;;;;;;;;6255155;28;20056;-77
2022/04/13 17:36:18;;;;;;;20.83;11.50;;;;;;;;;;6252934;28;20135;-77
2022/04/13 17:39:20;;;;;;;19.98;10.82;;;;;;;;;;6259756;28;20198;-77
2022/04/13 17:42:23;;;;;;;21.80;10.35;;;;;;;;;;6254601;28;20057;-72
2022/04/13 17:45:25;;;;;;;17.13;10.35;;;;;;;;;;6259138;28;20091;-71
2022/04/13 17:48:27;;;;;;;18.90;9.95;;;;;;;;;;6253159;28;20049;-73
2022/04/13 17:51:29;;;;;;;21.48;11.13;;;;;;;;;;6254516;28;20496;-72
2022/04/13 17:54:31;;;;;;;23.85;11.30;;;;;;;;;;6258899;28;20045;-75